Time;durP1;ratioP1;P1;durP2;ratioP2;P2;SDS_P1;SDS_P2;PMS_P1;PMS_P2;Temp;Humidity;BMP_temperature;BMP_pressure;BME280_temperature;BME280_humidity;BME280_pressure;Samples;Min_cycle;Max_cycle;Signal;HPM_P1;HPM_P2
2022/08/28 00:02:02;;;;;;;11.35;3.38;;;16.10;99.90;;;;;;12485648;28;20114;-33
2022/08/28 00:08:04;;;;;;;10.20;3.13;;;16.00;99.90;;;;;;12481808;28;20136;-33
2022/08/28 00:14:08;;;;;;;13.85;3.72;;;16.00;99.90;;;;;;12485493;28;20045;-33
2022/08/28 00:20:12;;;;;;;13.35;3.58;;;16.00;99.90;;;;;;12480998;28;20053;-33
2022/08/28 00:27:51;;;;;;;10.40;3.45;;;16.00;99.90;;;;;;12471410;28;20049;-33
2022/08/28 00:32:36;;;;;;;13.05;4.03;;;15.90;99.90;;;;;;12476261;28;20152;-33
2022/08/28 00:38:37;;;;;;;11.60;3.58;;;15.90;99.90;;;;;;12498687;28;20053;-33
2022/08/28 00:44:43;;;;;;;11.95;3.65;;;15.90;99.90;;;;;;12488029;28;20068;-33
2022/08/28 00:57:12;;;;;;;11.93;3.47;;;15.90;99.90;;;;;;12478921;28;20525;-33
2022/08/28 01:03:13;;;;;;;12.55;3.40;;;15.90;99.90;;;;;;12482979;28;20090;-33
2022/08/28 01:09:15;;;;;;;11.57;3.70;;;15.90;99.90;;;;;;12487543;28;20045;-33
2022/08/28 01:15:28;;;;;;;11.73;3.22;;;15.80;99.90;;;;;;12481417;28;20049;-33
2022/08/28 01:21:42;;;;;;;11.45;3.33;;;15.80;99.90;;;;;;12476208;28;20091;-33
2022/08/28 01:27:44;;;;;;;16.03;3.90;;;15.60;99.90;;;;;;12486438;28;20049;-33
2022/08/28 01:33:47;;;;;;;12.98;4.43;;;15.60;99.90;;;;;;12464174;28;20075;-33
2022/08/28 01:39:49;;;;;;;11.35;3.42;;;15.70;99.90;;;;;;12450572;28;20054;-33
2022/08/28 01:45:54;;;;;;;17.35;3.90;;;15.70;99.90;;;;;;12431390;28;20111;-33
2022/08/28 01:51:57;;;;;;;12.63;3.15;;;15.50;99.90;;;;;;12452387;28;20215;-33
2022/08/28 01:57:58;;;;;;;13.10;3.67;;;15.50;99.90;;;;;;12458542;28;20099;-33
2022/08/28 02:04:03;;;;;;;17.45;3.35;;;15.50;99.90;;;;;;12449402;28;20045;-33
2022/08/28 02:10:07;;;;;;;12.38;3.13;;;15.60;99.90;;;;;;12457794;28;20263;-33
2022/08/28 02:16:09;;;;;;;11.05;3.50;;;15.60;99.90;;;;;;12455025;28;20046;-33
2022/08/28 02:22:12;;;;;;;9.98;3.92;;;15.50;99.90;;;;;;12456051;28;20512;-33
2022/08/28 02:28:14;;;;;;;16.17;3.85;;;15.50;99.90;;;;;;12456101;28;20095;-33
2022/08/28 02:34:15;;;;;;;11.18;3.15;;;15.50;99.90;;;;;;12481076;28;20172;-33
2022/08/28 02:40:20;;;;;;;13.43;3.33;;;15.40;99.90;;;;;;12477492;28;20447;-33
2022/08/28 02:46:22;;;;;;;8.77;3.17;;;15.40;99.90;;;;;;12464422;28;20424;-33
2022/08/28 02:52:24;;;;;;;11.13;3.13;;;15.40;99.90;;;;;;12481247;28;20049;-33
2022/08/28 02:58:26;;;;;;;12.80;4.85;;;15.20;99.90;;;;;;12487270;28;20091;-33
2022/08/28 03:04:27;;;;;;;18.88;3.75;;;15.20;99.90;;;;;;12490234;28;20053;-33
2022/08/28 03:10:29;;;;;;;11.15;3.33;;;15.10;99.90;;;;;;12492568;28;20136;-33
2022/08/28 03:16:32;;;;;;;12.10;3.13;;;15.10;99.90;;;;;;12492953;28;20466;-33
2022/08/28 03:28:56;;;;;;;15.00;3.17;;;15.00;99.90;;;;;;12483469;28;20459;-33
2022/08/28 03:35:00;;;;;;;13.70;3.10;;;14.90;99.90;;;;;;12470544;28;20037;-34
2022/08/28 03:41:02;;;;;;;10.25;3.10;;;15.00;99.90;;;;;;12471934;28;20056;-33
2022/08/28 03:47:04;;;;;;;14.10;2.90;;;15.00;99.90;;;;;;12468925;28;20095;-33
2022/08/28 03:53:06;;;;;;;11.07;3.50;;;15.10;99.90;;;;;;12469123;28;20049;-33
2022/08/28 03:59:08;;;;;;;11.05;3.95;;;15.10;99.90;;;;;;12471752;28;20049;-33
2022/08/28 04:05:10;;;;;;;12.02;2.92;;;15.10;99.90;;;;;;12466497;28;20091;-33
2022/08/28 04:11:12;;;;;;;11.40;3.50;;;15.10;99.90;;;;;;12471339;28;20478;-33
2022/08/28 04:17:14;;;;;;;11.55;3.50;;;15.00;99.90;;;;;;12465836;28;21435;-33
2022/08/28 04:23:16;;;;;;;8.02;3.15;;;15.10;99.90;;;;;;12468090;28;20045;-33
2022/08/28 04:29:18;;;;;;;10.93;3.30;;;15.00;99.90;;;;;;12469379;28;20041;-33
2022/08/28 04:35:20;;;;;;;10.75;3.22;;;15.00;99.90;;;;;;12482865;28;20046;-33
2022/08/28 04:41:22;;;;;;;10.18;3.30;;;15.00;99.90;;;;;;12483654;28;20091;-33
2022/08/28 04:47:23;;;;;;;12.07;3.28;;;14.90;99.90;;;;;;12484180;28;20455;-33
2022/08/28 04:53:26;;;;;;;11.23;3.22;;;15.00;99.90;;;;;;12486551;28;20041;-33
2022/08/28 04:59:28;;;;;;;9.00;3.40;;;14.90;99.90;;;;;;12486545;28;20122;-33
2022/08/28 05:05:30;;;;;;;13.18;3.22;;;15.00;99.90;;;;;;12480852;28;20463;-33
2022/08/28 05:11:32;;;;;;;17.58;4.13;;;14.90;99.90;;;;;;12484562;28;20537;-33
2022/08/28 05:17:35;;;;;;;9.77;2.50;;;15.00;99.90;;;;;;12485439;28;20084;-33
2022/08/28 05:23:37;;;;;;;11.52;3.20;;;14.80;99.90;;;;;;12477757;28;20045;-33
2022/08/28 05:29:39;;;;;;;14.95;3.70;;;15.00;99.90;;;;;;12466747;28;20327;-33
2022/08/28 05:35:43;;;;;;;8.98;2.97;;;15.10;99.90;;;;;;12471059;28;20493;-33
2022/08/28 05:41:46;;;;;;;9.18;2.95;;;15.20;99.90;;;;;;12465839;28;20049;-33
2022/08/28 05:47:48;;;;;;;12.07;3.30;;;15.10;99.90;;;;;;12464615;28;20459;-33
2022/08/28 05:53:49;;;;;;;13.05;3.40;;;15.10;99.90;;;;;;12453543;28;20094;-33
2022/08/28 05:59:52;;;;;;;13.13;2.58;;;15.20;99.90;;;;;;12456881;28;20045;-33
2022/08/28 06:05:54;;;;;;;9.68;2.70;;;14.90;99.90;;;;;;12426796;28;20136;-33
2022/08/28 06:11:59;;;;;;;14.13;2.75;;;14.80;99.90;;;;;;12429632;28;20107;-33
2022/08/28 06:18:02;;;;;;;12.30;2.45;;;14.80;99.90;;;;;;12441076;28;20053;-33
2022/08/28 06:24:05;;;;;;;10.63;3.35;;;14.70;99.90;;;;;;12458274;28;20053;-34
2022/08/28 06:30:07;;;;;;;8.25;2.40;;;15.20;99.90;;;;;;12414852;28;20049;-33
2022/08/28 06:36:10;;;;;;;10.15;2.50;;;15.10;99.90;;;;;;12439815;28;20064;-34
2022/08/28 06:42:11;;;;;;;11.00;2.75;;;15.00;99.90;;;;;;12482244;28;20503;-33
2022/08/28 06:48:16;;;;;;;10.88;2.55;;;14.80;99.90;;;;;;12481025;28;20049;-33
2022/08/28 06:54:18;;;;;;;14.18;2.67;;;15.30;99.90;;;;;;12458851;28;20130;-33
2022/08/28 07:00:24;;;;;;;13.05;2.92;;;15.20;99.90;;;;;;12483638;28;20046;-33
2022/08/28 07:06:29;;;;;;;9.43;1.90;;;15.30;99.90;;;;;;12482164;28;20095;-33
2022/08/28 07:12:31;;;;;;;9.15;2.90;;;15.30;99.90;;;;;;12426552;28;20042;-33
2022/08/28 07:18:33;;;;;;;10.82;2.40;;;15.80;99.90;;;;;;12404241;28;20050;-33
2022/08/28 07:24:34;;;;;;;10.68;2.22;;;15.60;99.90;;;;;;12392625;28;20412;-34
2022/08/28 07:30:36;;;;;;;7.32;2.40;;;15.70;99.90;;;;;;12400986;28;20054;-33
2022/08/28 07:36:40;;;;;;;9.30;1.98;;;15.90;99.90;;;;;;12418718;28;20060;-34
2022/08/28 07:49:03;;;;;;;8.95;2.10;;;16.20;99.90;;;;;;12454615;28;20102;-33
2022/08/28 07:55:07;;;;;;;10.18;2.15;;;16.40;99.90;;;;;;12450231;28;20599;-33
2022/08/28 08:01:10;;;;;;;11.75;2.10;;;16.20;99.90;;;;;;12426390;28;20049;-34
2022/08/28 08:07:13;;;;;;;10.87;2.17;;;16.20;99.90;;;;;;12460440;28;20057;-33
2022/08/28 08:13:14;;;;;;;7.60;2.05;;;16.60;99.90;;;;;;12466117;28;20045;-33
2022/08/28 08:19:17;;;;;;;10.90;2.10;;;16.40;99.90;;;;;;12443326;28;21188;-34
2022/08/28 08:25:19;;;;;;;9.65;2.08;;;16.40;99.90;;;;;;12465517;28;20060;-34
2022/08/28 08:31:25;;;;;;;7.78;1.85;;;16.60;99.90;;;;;;12473124;28;20068;-33
2022/08/28 08:37:27;;;;;;;9.65;2.13;;;16.80;99.90;;;;;;12460056;28;20132;-33
2022/08/28 08:43:32;;;;;;;10.32;2.60;;;17.00;99.90;;;;;;12491222;28;20098;-34
2022/08/28 08:49:39;;;;;;;6.47;1.80;;;17.10;99.90;;;;;;12483356;28;20095;-33
2022/08/28 08:55:46;;;;;;;6.43;2.10;;;17.40;99.90;;;;;;12485197;28;20045;-34
2022/08/28 09:02:07;;;;;;;6.93;2.22;;;17.40;99.90;;;;;;12485303;28;20057;-34
2022/08/28 09:08:20;;;;;;;8.57;1.80;;;17.40;99.90;;;;;;12484044;28;20095;-33
2022/08/28 09:14:32;;;;;;;13.93;2.50;;;17.40;99.90;;;;;;12478336;28;20041;-33
2022/08/28 09:20:34;;;;;;;6.18;2.10;;;17.50;99.90;;;;;;12482443;28;20091;-34
2022/08/28 09:26:36;;;;;;;7.07;2.17;;;17.70;99.90;;;;;;12479651;28;20558;-33
2022/08/28 09:32:45;;;;;;;10.40;2.00;;;17.80;99.90;;;;;;12466099;28;20110;-34
2022/08/28 09:39:07;;;;;;;15.35;2.53;;;17.90;99.90;;;;;;12463057;28;20062;-33
2022/08/28 09:45:19;;;;;;;9.48;2.00;;;17.80;99.90;;;;;;12457679;28;20688;-33
2022/08/28 09:51:21;;;;;;;7.72;2.38;;;17.80;99.90;;;;;;12460176;28;20406;-33
2022/08/28 09:57:22;;;;;;;6.35;1.73;;;18.10;99.90;;;;;;12456668;28;20634;-33
2022/08/28 10:03:47;;;;;;;12.20;2.40;;;18.50;99.90;;;;;;12463663;28;20412;-33
2022/08/28 10:10:15;;;;;;;7.82;2.05;;;18.90;99.90;;;;;;12465640;28;20287;-34
2022/08/28 10:16:30;;;;;;;9.35;2.20;;;18.50;99.90;;;;;;12460878;28;20046;-33
2022/08/28 10:22:55;;;;;;;6.63;1.75;;;18.70;99.90;;;;;;12457044;28;20111;-33
2022/08/28 10:29:21;;;;;;;10.10;2.15;;;18.90;99.90;;;;;;12463784;28;20088;-34
2022/08/28 10:35:51;;;;;;;6.38;2.05;;;18.60;99.90;;;;;;12482553;28;20053;-33
2022/08/28 10:42:00;;;;;;;7.93;1.73;;;18.90;99.90;;;;;;12479373;28;20552;-34
2022/08/28 10:48:16;;;;;;;7.60;2.20;;;19.20;99.90;;;;;;12480847;28;20087;-34
2022/08/28 10:54:43;;;;;;;6.40;2.00;;;19.30;99.90;;;;;;12479100;28;20049;-34
2022/08/28 11:00:45;;;;;;;4.35;1.73;;;19.70;99.90;;;;;;12481471;28;20099;-34
2022/08/28 11:06:53;;;;;;;5.50;1.70;;;20.00;99.90;;;;;;12474593;28;20057;-33
2022/08/28 11:12:55;;;;;;;5.72;1.52;;;20.20;99.90;;;;;;12480847;28;20037;-34
2022/08/28 11:19:08;;;;;;;6.78;1.98;;;20.10;99.90;;;;;;12490216;28;20072;-34
2022/08/28 11:25:24;;;;;;;8.63;2.15;;;20.50;99.90;;;;;;12487944;28;20535;-34
2022/08/28 11:31:36;;;;;;;6.25;2.08;;;20.60;99.90;;;;;;12492377;28;20107;-34
2022/08/28 11:37:46;;;;;;;5.03;1.75;;;20.80;99.90;;;;;;12485756;28;20489;-34
2022/08/28 11:44:13;;;;;;;8.27;1.90;;;21.20;99.90;;;;;;12489343;28;20058;-34
2022/08/28 11:50:24;;;;;;;7.38;1.98;;;21.00;99.90;;;;;;12484947;28;20045;-34
2022/08/28 11:56:51;;;;;;;8.75;1.50;;;20.90;99.90;;;;;;12490412;28;20075;-34
2022/08/28 12:03:10;;;;;;;4.32;1.63;;;21.20;99.90;;;;;;12492090;28;20402;-34
2022/08/28 12:09:24;;;;;;;9.30;2.22;;;21.10;99.90;;;;;;12488985;28;20045;-34
2022/08/28 12:15:26;;;;;;;;;;;20.90;99.90;;;;;;12486152;28;20106;-34
2022/08/28 12:21:29;;;;;;;5.40;1.40;;;21.20;99.90;;;;;;12484176;28;20071;-34
2022/08/28 12:27:37;;;;;;;6.78;1.80;;;21.60;99.90;;;;;;12484679;28;20049;-34
2022/08/28 12:33:38;;;;;;;4.55;1.50;;;21.60;99.90;;;;;;12484515;28;20139;-34
2022/08/28 12:39:41;;;;;;;7.47;1.77;;;21.30;99.90;;;;;;12488355;28;20128;-34
2022/08/28 12:45:56;;;;;;;4.57;1.47;;;21.60;99.90;;;;;;12480482;28;20045;-34
2022/08/28 12:52:18;;;;;;;6.47;1.77;;;21.60;99.90;;;;;;12481782;28;20235;-34
2022/08/28 12:58:36;;;;;;;9.82;1.98;;;21.90;99.90;;;;;;12486810;28;20045;-34
2022/08/28 13:05:02;;;;;;;6.15;1.73;;;22.00;99.90;;;;;;12481156;28;20065;-34
2022/08/28 13:11:05;;;;;;;4.53;1.48;;;22.30;99.90;;;;;;12481962;28;20041;-34
2022/08/28 13:17:08;;;;;;;4.85;1.52;;;22.30;99.90;;;;;;12481711;28;20057;-34
2022/08/28 13:23:28;;;;;;;6.07;1.30;;;22.50;99.90;;;;;;12485192;28;20099;-34
2022/08/28 13:29:30;;;;;;;6.30;1.60;;;22.30;99.90;;;;;;12487494;28;20728;-34
2022/08/28 13:35:35;;;;;;;4.95;1.40;;;22.50;99.90;;;;;;12480371;28;20045;-34
2022/08/28 13:41:37;;;;;;;7.03;1.52;;;22.50;99.90;;;;;;12482654;28;20477;-34
2022/08/28 13:47:40;;;;;;;5.15;1.45;;;22.50;99.90;;;;;;12482185;28;20450;-34
2022/08/28 13:53:41;;;;;;;5.40;1.40;;;22.20;99.90;;;;;;12480433;28;20454;-34
2022/08/28 13:59:44;;;;;;;6.60;1.98;;;22.40;99.90;;;;;;12483571;28;20378;-34
2022/08/28 14:05:45;;;;;;;4.55;1.50;;;22.60;99.90;;;;;;12481575;28;20401;-34
2022/08/28 14:11:48;;;;;;;4.20;1.40;;;22.40;99.90;;;;;;12482983;28;20053;-34
2022/08/28 14:17:50;;;;;;;6.87;1.23;;;22.30;99.90;;;;;;12479367;28;20110;-34
2022/08/28 14:23:52;;;;;;;4.10;1.35;;;22.70;99.90;;;;;;12479196;28;20041;-34
2022/08/28 14:29:54;;;;;;;7.00;1.50;;;23.00;99.90;;;;;;12480261;28;20111;-35
2022/08/28 14:35:56;;;;;;;4.88;1.70;;;23.10;99.90;;;;;;12481249;28;20128;-35
2022/08/28 14:41:58;;;;;;;5.10;1.58;;;23.20;99.90;;;;;;12476901;28;20404;-34
2022/08/28 14:47:59;;;;;;;5.00;1.70;;;22.90;99.90;;;;;;12490066;28;20110;-35
2022/08/28 14:54:02;;;;;;;5.40;1.50;;;22.90;99.90;;;;;;12488700;28;20558;-35
2022/08/28 15:00:04;;;;;;;6.38;1.52;;;22.60;99.90;;;;;;12487816;28;20099;-34
2022/08/28 15:06:08;;;;;;;8.30;1.58;;;22.60;99.90;;;;;;12491484;28;20049;-34
2022/08/28 15:12:10;;;;;;;4.50;1.35;;;23.00;99.90;;;;;;12489318;28;20075;-34
2022/08/28 15:18:12;;;;;;;5.78;1.20;;;23.20;99.90;;;;;;12487786;28;20475;-34
2022/08/28 15:24:17;;;;;;;6.00;1.50;;;22.90;99.90;;;;;;12488705;28;20099;-34
2022/08/28 15:30:19;;;;;;;5.25;1.42;;;22.40;99.90;;;;;;12489826;28;20049;-34
2022/08/28 15:36:21;;;;;;;5.43;1.60;;;22.60;99.90;;;;;;12491813;28;20049;-34
2022/08/28 15:42:23;;;;;;;4.63;1.73;;;22.50;99.90;;;;;;12488877;28;20188;-34
2022/08/28 15:48:25;;;;;;;6.50;1.58;;;22.90;99.90;;;;;;12490369;28;20808;-34
2022/08/28 15:54:27;;;;;;;3.45;1.30;;;23.00;99.90;;;;;;12483529;28;20041;-34
2022/08/28 16:00:29;;;;;;;6.50;1.67;;;22.60;99.90;;;;;;12487558;28;20136;-34
2022/08/28 16:06:30;;;;;;;4.97;1.85;;;22.80;99.90;;;;;;12487442;28;20555;-34
2022/08/28 16:12:33;;;;;;;7.25;1.45;;;22.70;99.90;;;;;;12485391;28;20084;-34
2022/08/28 16:18:35;;;;;;;4.68;1.52;;;23.00;99.90;;;;;;12486600;28;20106;-34
2022/08/28 16:24:37;;;;;;;6.40;1.70;;;23.20;99.90;;;;;;12484602;28;20045;-34
2022/08/28 16:30:40;;;;;;;4.82;1.30;;;23.10;99.90;;;;;;12487921;28;20546;-34
2022/08/28 16:36:46;;;;;;;5.68;1.50;;;23.10;99.90;;;;;;12483164;28;20547;-34
2022/08/28 16:42:48;;;;;;;7.38;1.63;;;22.90;99.90;;;;;;12485528;28;20049;-34
2022/08/28 16:48:54;;;;;;;4.57;1.83;;;22.90;99.90;;;;;;12486333;28;20057;-34
2022/08/28 16:54:56;;;;;;;4.22;1.35;;;22.50;99.90;;;;;;12484371;28;20562;-34
2022/08/28 17:00:58;;;;;;;4.90;1.63;;;22.40;99.90;;;;;;12482754;28;20049;-34
2022/08/28 17:07:01;;;;;;;5.40;1.53;;;22.00;99.90;;;;;;12481766;28;20401;-34
2022/08/28 17:13:03;;;;;;;6.38;1.70;;;21.70;99.90;;;;;;12480039;28;20546;-34
2022/08/28 17:19:04;;;;;;;7.85;2.03;;;21.30;99.90;;;;;;12477958;28;20050;-34
2022/08/28 17:25:12;;;;;;;6.43;1.83;;;21.10;99.90;;;;;;12482343;28;20037;-35
2022/08/28 17:31:14;;;;;;;7.45;1.80;;;20.70;99.90;;;;;;12483385;28;20045;-34
2022/08/28 17:37:17;;;;;;;5.40;1.85;;;20.50;99.90;;;;;;12480469;28;20131;-34
2022/08/28 17:43:20;;;;;;;4.18;1.58;;;20.40;99.90;;;;;;12480793;28;20057;-34
2022/08/28 17:49:21;;;;;;;8.15;1.60;;;20.20;99.90;;;;;;12483298;28;20045;-34
2022/08/28 17:55:23;;;;;;;6.32;1.70;;;20.00;99.90;;;;;;12480709;28;20049;-34
2022/08/28 18:01:25;;;;;;;5.65;2.13;;;19.90;99.90;;;;;;12478751;28;20042;-34
2022/08/28 18:07:27;;;;;;;6.78;2.53;;;19.70;99.90;;;;;;12479865;28;20053;-34
2022/08/28 18:13:30;;;;;;;9.02;2.38;;;19.60;99.90;;;;;;12479124;28;20103;-34
2022/08/28 18:19:32;;;;;;;8.57;2.75;;;19.40;99.90;;;;;;12476082;28;20065;-34
2022/08/28 18:25:48;;;;;;;7.47;2.90;;;19.20;99.90;;;;;;12477375;28;20087;-34
2022/08/28 18:31:51;;;;;;;9.63;2.55;;;19.20;99.90;;;;;;12484678;28;20184;-34
2022/08/28 18:37:53;;;;;;;6.05;2.83;;;19.10;99.90;;;;;;12482137;28;20098;-34
2022/08/28 18:43:56;;;;;;;10.40;3.08;;;19.00;99.90;;;;;;12476946;28;20509;-34
2022/08/28 18:50:05;;;;;;;6.75;3.20;;;18.90;99.90;;;;;;12477383;28;20132;-34
2022/08/28 18:56:07;;;;;;;6.90;3.23;;;18.70;99.90;;;;;;12473587;28;20117;-33
2022/08/28 19:02:11;;;;;;;8.18;3.45;;;18.60;99.90;;;;;;12475156;28;20049;-34
2022/08/28 19:08:13;;;;;;;8.45;3.42;;;18.50;99.90;;;;;;12480204;28;20042;-34
2022/08/28 19:14:15;;;;;;;10.18;4.03;;;18.40;99.90;;;;;;12470388;28;20452;-34
2022/08/28 19:20:19;;;;;;;10.23;3.55;;;18.30;99.90;;;;;;12467692;28;20060;-34
2022/08/28 19:26:21;;;;;;;10.38;3.97;;;18.20;99.90;;;;;;12466240;28;20083;-34
2022/08/28 19:32:23;;;;;;;9.18;3.10;;;18.10;99.90;;;;;;12470499;28;20127;-34
2022/08/28 19:38:28;;;;;;;8.10;3.00;;;18.00;99.90;;;;;;12481040;28;20050;-34
2022/08/28 19:44:31;;;;;;;11.15;3.35;;;17.80;99.90;;;;;;12473125;28;20517;-33
2022/08/28 19:50:33;;;;;;;6.57;2.65;;;17.80;99.90;;;;;;12478194;28;20060;-34
2022/08/28 19:56:36;;;;;;;11.25;3.00;;;17.70;99.90;;;;;;12489963;28;20123;-34
2022/08/28 20:02:37;;;;;;;8.00;2.80;;;17.80;99.90;;;;;;12503711;28;20448;-34
2022/08/28 20:08:39;;;;;;;8.40;3.35;;;17.60;99.90;;;;;;12482531;28;20087;-34
2022/08/28 20:14:41;;;;;;;6.75;2.72;;;17.50;99.90;;;;;;12483749;28;20049;-34
2022/08/28 20:20:45;;;;;;;7.72;2.92;;;17.30;99.90;;;;;;12479840;28;20087;-34
2022/08/28 20:26:48;;;;;;;8.95;2.78;;;17.40;99.90;;;;;;12484986;28;20140;-34
2022/08/28 20:32:50;;;;;;;7.10;2.97;;;17.30;99.90;;;;;;12485419;28;20054;-34
2022/08/28 20:38:52;;;;;;;6.47;3.10;;;17.40;99.90;;;;;;12484406;28;20060;-34
2022/08/28 20:44:56;;;;;;;6.97;2.93;;;17.40;99.90;;;;;;12483718;28;20141;-33
2022/08/28 20:50:58;;;;;;;8.82;4.30;;;17.40;99.90;;;;;;12483127;28;20619;-35
2022/08/28 20:57:04;;;;;;;8.38;2.83;;;17.40;99.90;;;;;;12495347;28;20080;-34
2022/08/28 21:03:10;;;;;;;7.88;2.95;;;17.20;99.90;;;;;;12486422;28;20041;-33
2022/08/28 21:09:14;;;;;;;7.57;2.83;;;17.00;99.90;;;;;;12486248;28;20071;-33
2022/08/28 21:15:15;;;;;;;10.07;2.90;;;16.90;99.90;;;;;;12485406;28;20096;-34
2022/08/28 21:21:17;;;;;;;7.15;2.88;;;16.90;99.90;;;;;;12485509;28;20398;-33
2022/08/28 21:27:21;;;;;;;14.93;2.97;;;16.80;99.90;;;;;;12482128;28;20046;-33
2022/08/28 21:33:23;;;;;;;8.85;2.78;;;16.60;99.90;;;;;;12482386;28;20049;-33
2022/08/28 21:39:25;;;;;;;5.63;2.20;;;16.50;99.90;;;;;;12482970;28;20053;-33
2022/08/28 21:45:27;;;;;;;8.35;2.47;;;16.40;99.90;;;;;;12480856;28;20545;-34
2022/08/28 21:51:29;;;;;;;7.32;2.53;;;16.30;99.90;;;;;;12482730;28;20123;-33
2022/08/28 21:57:31;;;;;;;6.57;2.65;;;16.20;99.90;;;;;;12482562;28;20053;-33
2022/08/28 22:03:32;;;;;;;10.45;2.88;;;16.10;99.90;;;;;;12480980;28;20041;-33
2022/08/28 22:09:34;;;;;;;8.18;2.85;;;16.10;99.90;;;;;;12481893;28;20042;-33
2022/08/28 22:15:42;;;;;;;7.22;2.70;;;16.00;99.90;;;;;;12479967;28;20190;-33
2022/08/28 22:28:06;;;;;;;6.75;2.33;;;16.00;99.90;;;;;;12482504;28;20037;-33
2022/08/28 22:34:09;;;;;;;6.18;2.47;;;15.90;99.90;;;;;;12476202;28;20410;-34
2022/08/28 22:40:11;;;;;;;6.95;2.47;;;15.80;99.90;;;;;;12478836;28;20049;-33
2022/08/28 22:46:14;;;;;;;9.27;2.50;;;15.70;99.90;;;;;;12479977;28;20492;-34
2022/08/28 22:52:16;;;;;;;7.10;2.70;;;15.70;99.90;;;;;;12480124;28;20118;-33
2022/08/28 22:58:18;;;;;;;5.25;2.10;;;15.60;99.90;;;;;;12479765;28;20045;-34
2022/08/28 23:04:20;;;;;;;5.00;2.40;;;15.50;99.90;;;;;;12480411;28;20840;-33
2022/08/28 23:10:22;;;;;;;9.07;2.50;;;15.50;99.90;;;;;;12486233;28;20056;-34
2022/08/28 23:16:44;;;;;;;8.57;2.28;;;15.40;99.90;;;;;;12488906;28;20049;-33
2022/08/28 23:22:46;;;;;;;7.50;2.70;;;15.30;99.90;;;;;;12487975;28;20043;-33
2022/08/28 23:28:48;;;;;;;6.60;2.50;;;15.30;99.90;;;;;;12481999;28;20934;-34
2022/08/28 23:34:49;;;;;;;7.72;2.40;;;15.30;99.90;;;;;;12488130;28;20130;-33
2022/08/28 23:40:51;;;;;;;5.78;2.20;;;15.20;99.90;;;;;;12489856;28;20053;-33
2022/08/28 23:46:53;;;;;;;7.07;2.22;;;15.10;99.90;;;;;;12489384;28;20041;-34
2022/08/28 23:52:56;;;;;;;6.95;2.50;;;15.00;99.90;;;;;;12488023;28;20106;-33
2022/08/28 23:58:59;;;;;;;10.02;3.20;;;14.90;99.90;;;;;;12485974;28;20045;-34
